USCCUSPP

Guest
Details From USCC - BALANDINO
To USPP - BOLSHOYE SAVINO
Flight Number -
Tags decoded
Created
Modified
Stats Distance 254 nm / 471 km
Max Altitude 0 ft / 0 m
Waypoints 5
Social Downloads 1
Likes 0
Share VATSIM

Download

Looking for another format? Having issues loading an existing format? Contact us
Advertisement - Login to hide

Notes

Requested: USCC TAKRA R486 ALUMA B210 LAGUL USPP Unmatched points: R486 B210

Route

USCC TAKRA ALUMA LAGUL USPP

ID Type Via Altitude Latitude Longitude Leg Dist Tot Dist Heading (true) Name
O USCC APT - 0 ft / 0 m 55.30584˚ 61.50332˚ - 0 nm - BALANDINO
TAKRA FIX - 0 ft / 0 m 55.90694˚ 61.22361˚ 37 nm 37 nm 345° / 345° -
ALUMA FIX - 0 ft / 0 m 56.38694˚ 60.98194˚ 29 nm 67 nm 344° / 344° -
LAGUL FIX - 0 ft / 0 m 57.65194˚ 56.50833˚ 164 nm 232 nm 299° / 296° -
O USPP APT - 0 ft / 0 m 57.91452˚ 56.02121˚ 22 nm 254 nm 316° / 315° BOLSHOYE SAVINO

Altitude Profile

Advertisement - Login to hide

Weather


0- 5 10 15 20 25 30 35+ Temperature / ° C

Clouds and Precipitation
Forecast for 2017-12-18 00:00 UTC. Updated 4 minutes ago

Ground ~20,000 ft ~40,000 ft Winds

USCC

Details ICAO USCC (CEK)
Name BALANDINO
Region Russia
Timezone Asia/Yekaterinburg (UTC+5.0)
Stats Elevation 769 ft / 234 m (AMSL)
Location 55.305843° 61.503320°
Runways 1
Magnetic Variation 13.794° E

METAR

USCC 172300Z 10002MPS 3800 BR FU NSC M21/M24 Q1038 R09/000060 TEMPO 1100 BR FU VV005 RMK QFE757

Decode

TAF

TAF USCC 172000Z 1721/1821 18003MPS 3100 BR FU SCT020 TEMPO 1721/1807 12001MPS 2400 BR FU SCT011

Decode

Departure Runways

ID Width Length Bearing (true) Bearing (mag) Surface Threshold Offset Overrun Length
09 197 ft / 60 m 10,443 ft / 3,183 m 103.59° 89.80° Concrete 0 ft / 0 m 230 ft / 70 m
27 197 ft / 60 m 10,443 ft / 3,183 m 283.63° 269.84° Concrete 0 ft / 0 m 230 ft / 70 m

USPP

Details ICAO USPP (PEE)
Name BOLSHOYE SAVINO
Region Russia
Timezone Asia/Yekaterinburg (UTC+5.0)
Stats Elevation 404 ft / 123 m (AMSL)
Location 57.914517° 56.021214°
Runways 1
Magnetic Variation 15.589° E

METAR

USPP 172300Z 12003MPS CAVOK M09/M15 Q1031 WS R21 R21/090060 NOSIG RMK QFE762

Decode

TAF

TAF USPP 171958Z 1721/1821 17005MPS CAVOK TEMPO 1721/1807 14010MPS 3100 BR SCT011

Decode

Destination Runways

ID Width Length Bearing (true) Bearing (mag) Surface Threshold Offset Overrun Length
03 161 ft / 49 m 10,493 ft / 3,198 m 45.91° 30.32° Concrete 0 ft / 0 m 165 ft / 50 m
21 161 ft / 49 m 10,493 ft / 3,198 m 225.95° 210.36° Concrete 0 ft / 0 m 155 ft / 47 m

Approach Navaids

Runway Type Ident Frequency Range Bearing (true) Bearing (mag) Slope Elevation
21 Localiser IPX 109.90 MHz 18 nm / 33 km 222.51° 206.92° - 404 ft / 123 m (AMSL)
21 Glidescope IPX 109.90 MHz 10 nm / 19 km 225.93° 210.34° 2.70° 150 ft / 46 m (AMSL)

Popular Alternatives